createdAt,value
2018-05-02T00:02:09.166Z,101214.19
2018-05-02T00:04:36.792Z,101221.41
2018-05-02T00:07:04.311Z,101221.84
2018-05-02T00:09:31.845Z,101232.98
2018-05-02T00:11:59.375Z,101231.20
2018-05-02T00:14:26.892Z,101229.61
2018-05-02T00:16:54.490Z,101230.89
2018-05-02T00:19:22.011Z,101235.92
2018-05-02T00:21:49.523Z,101226.84
2018-05-02T00:24:17.036Z,101236.09
2018-05-02T00:26:44.560Z,101240.52
2018-05-02T00:29:12.185Z,101243.22
2018-05-02T00:31:39.708Z,101238.82
2018-05-02T00:34:07.229Z,101234.31
2018-05-02T00:36:34.765Z,101241.06
2018-05-02T00:39:02.284Z,101236.81
2018-05-02T00:41:29.816Z,101237.77
2018-05-02T00:43:57.451Z,101234.38
2018-05-02T00:46:25.010Z,101235.69
2018-05-02T00:49:04.347Z,101242.11
2018-05-02T00:51:31.868Z,101241.70
2018-05-02T00:53:59.424Z,101239.31
2018-05-02T00:56:26.957Z,101238.64
2018-05-02T00:58:54.551Z,101233.42
2018-05-02T01:01:22.069Z,101239.41
2018-05-02T01:03:49.589Z,101232.55
2018-05-02T01:06:17.117Z,101235.31
2018-05-02T01:08:44.639Z,101232.17
2018-05-02T01:11:12.166Z,101233.15
2018-05-02T01:13:39.694Z,101239.95
2018-05-02T01:16:07.226Z,101254.27
2018-05-02T01:18:34.728Z,101255.62
2018-05-02T01:21:02.247Z,101254.33
2018-05-02T01:23:29.760Z,101249.44
2018-05-02T01:25:57.274Z,101258.50
2018-05-02T01:28:24.789Z,101251.39
2018-05-02T01:30:52.304Z,101264.84
2018-05-02T01:33:19.823Z,101259.94
2018-05-02T01:35:47.335Z,101270.66
2018-05-02T01:38:14.853Z,101273.44
2018-05-02T01:40:42.360Z,101265.47
2018-05-02T01:43:09.874Z,101267.28
2018-05-02T01:45:37.387Z,101270.09
2018-05-02T01:48:04.900Z,101280.55
2018-05-02T01:50:32.424Z,101274.32
2018-05-02T01:52:59.940Z,101285.56
2018-05-02T01:55:27.472Z,101282.54
2018-05-02T01:57:55.005Z,101291.09
2018-05-02T02:00:22.531Z,101289.48
2018-05-02T02:02:50.118Z,101282.73
2018-05-02T02:05:17.679Z,101284.02
2018-05-02T02:07:45.196Z,101281.45
2018-05-02T02:10:12.719Z,101285.94
2018-05-02T02:12:40.247Z,101278.77
2018-05-02T02:15:07.755Z,101278.38
2018-05-02T02:17:35.265Z,101280.17
2018-05-02T02:20:02.777Z,101275.76
2018-05-02T02:22:30.297Z,101275.41
2018-05-02T02:24:57.820Z,101271.41
2018-05-02T02:27:25.340Z,101280.30
2018-05-02T02:29:52.885Z,101276.73
2018-05-02T02:32:20.434Z,101275.45
2018-05-02T02:34:47.964Z,101273.22
2018-05-02T02:37:15.549Z,101268.36
2018-05-02T02:39:43.074Z,101268.02
2018-05-02T02:42:10.659Z,101261.36
2018-05-02T02:44:38.167Z,101253.86
2018-05-02T02:47:05.676Z,101255.27
2018-05-02T02:49:33.234Z,101254.80
2018-05-02T02:52:00.802Z,101251.26
2018-05-02T02:54:28.321Z,101249.48
2018-05-02T02:56:55.851Z,101247.83
2018-05-02T02:59:23.512Z,101251.92
2018-05-02T03:01:51.120Z,101252.88
2018-05-02T03:04:18.709Z,101249.83
2018-05-02T03:06:46.276Z,101249.45
2018-05-02T03:09:13.830Z,101244.94
2018-05-02T03:11:41.361Z,101247.61
2018-05-02T03:14:08.955Z,101250.77
2018-05-02T03:16:36.481Z,101246.72
2018-05-02T03:19:04.074Z,101252.52
2018-05-02T03:21:31.598Z,101251.19
2018-05-02T03:23:59.124Z,101254.80
2018-05-02T03:26:26.756Z,101259.70
2018-05-02T03:28:54.268Z,101257.94
2018-05-02T03:31:21.791Z,101259.28
2018-05-02T03:33:49.429Z,101260.28
2018-05-02T03:36:16.948Z,101266.00
2018-05-02T03:38:44.466Z,101265.98
2018-05-02T03:41:11.976Z,101268.75
2018-05-02T03:43:39.690Z,101265.55
2018-05-02T03:46:07.218Z,101268.41
2018-05-02T03:48:34.790Z,101262.64
2018-05-02T03:51:02.354Z,101269.73
2018-05-02T03:53:29.879Z,101268.06
2018-05-02T03:55:57.474Z,101264.13
2018-05-02T03:58:25.003Z,101258.88
2018-05-02T04:01:04.376Z,101265.13
2018-05-02T04:03:43.708Z,101261.00
2018-05-02T04:06:23.089Z,101260.91
2018-05-02T04:08:51.446Z,101262.06
2018-05-02T04:11:18.964Z,101256.18
2018-05-02T04:13:46.479Z,101263.22
2018-05-02T04:16:14.102Z,101262.26
2018-05-02T04:18:41.691Z,101271.50
2018-05-02T04:21:09.163Z,101261.19
2018-05-02T04:23:36.675Z,101266.42
2018-05-02T04:26:04.257Z,101267.14
2018-05-02T04:28:31.756Z,101267.91
2018-05-02T04:30:59.268Z,101269.14
2018-05-02T04:33:26.776Z,101267.70
2018-05-02T04:35:54.288Z,101270.15
2018-05-02T04:38:21.808Z,101268.33
2018-05-02T04:40:49.320Z,101281.08
2018-05-02T04:43:16.835Z,101287.16
2018-05-02T04:45:44.414Z,101280.22
2018-05-02T04:48:11.931Z,101279.66
2018-05-02T04:50:39.472Z,101275.96
2018-05-02T04:53:07.019Z,101283.78
2018-05-02T04:55:34.549Z,101285.37
2018-05-02T04:58:02.068Z,101292.21
2018-05-02T05:00:29.673Z,101298.09
2018-05-02T05:02:57.200Z,101303.67
2018-05-02T05:05:24.722Z,101301.11
2018-05-02T05:07:52.246Z,101304.03
2018-05-02T05:10:19.773Z,101313.83
2018-05-02T05:12:47.297Z,101318.78
2018-05-02T05:15:14.933Z,101317.42
2018-05-02T05:17:42.458Z,101315.67
2018-05-02T05:20:09.980Z,101319.42
2018-05-02T05:22:37.604Z,101328.04
2018-05-02T05:25:05.164Z,101320.84
2018-05-02T05:27:32.697Z,101326.52
2018-05-02T05:30:00.291Z,101331.32
2018-05-02T05:32:27.817Z,101335.16
2018-05-02T05:34:55.342Z,101342.25
2018-05-02T05:37:22.969Z,101348.38
2018-05-02T05:39:50.532Z,101346.47
2018-05-02T05:42:18.062Z,101345.09
2018-05-02T05:44:45.649Z,101343.84
2018-05-02T05:47:13.177Z,101343.21
2018-05-02T05:49:40.724Z,101342.56
2018-05-02T05:52:08.336Z,101337.04
2018-05-02T05:54:35.867Z,101340.54
2018-05-02T05:57:03.385Z,101338.36
2018-05-02T05:59:30.993Z,101343.59
2018-05-02T06:01:58.518Z,101344.31
2018-05-02T06:04:26.073Z,101346.02
2018-05-02T06:06:53.691Z,101345.91
2018-05-02T06:09:21.255Z,101350.12
2018-05-02T06:11:48.780Z,101353.17
2018-05-02T06:14:16.299Z,101355.21
2018-05-02T06:16:43.831Z,101356.33
2018-05-02T06:19:11.361Z,101357.11
2018-05-02T06:21:38.951Z,101358.92
2018-05-02T06:24:06.511Z,101363.88
2018-05-02T06:26:34.025Z,101367.17
2018-05-02T06:29:01.558Z,101366.72
2018-05-02T06:31:29.082Z,101363.45
2018-05-02T06:33:56.613Z,101358.58
2018-05-02T06:36:24.137Z,101363.63
2018-05-02T06:38:51.769Z,101357.48
2018-05-02T06:41:19.292Z,101358.22
2018-05-02T06:43:46.812Z,101351.97
2018-05-02T06:46:14.345Z,101352.80
2018-05-02T06:48:41.900Z,101345.76
2018-05-02T06:51:09.437Z,101347.88
2018-05-02T06:53:36.976Z,101351.84
2018-05-02T06:56:04.506Z,101338.45
2018-05-02T06:58:32.037Z,101337.29
2018-05-02T07:00:59.570Z,101332.84
2018-05-02T07:03:27.163Z,101339.36
2018-05-02T07:05:54.690Z,101327.75
2018-05-02T07:08:22.208Z,101329.67
2018-05-02T07:10:49.722Z,101324.81
2018-05-02T07:13:17.271Z,101328.39
2018-05-02T07:15:44.813Z,101325.92
2018-05-02T07:18:12.372Z,101329.94
2018-05-02T07:20:39.988Z,101330.17
2018-05-02T07:23:07.535Z,101332.28
2018-05-02T07:25:35.052Z,101334.76
2018-05-02T07:28:02.585Z,101328.22
2018-05-02T07:30:30.118Z,101328.71
2018-05-02T07:32:57.758Z,101338.91
2018-05-02T07:35:25.189Z,101339.29
2018-05-02T07:37:52.743Z,101340.16
2018-05-02T07:40:20.278Z,101332.95
2018-05-02T07:42:47.811Z,101338.77
2018-05-02T07:45:15.343Z,101333.67
2018-05-02T07:47:42.880Z,101333.88
2018-05-02T07:50:10.419Z,101331.62
2018-05-02T07:52:37.948Z,101327.77
2018-05-02T07:55:05.480Z,101322.45
2018-05-02T07:57:33.008Z,101319.55
2018-05-02T08:00:00.532Z,101319.22
2018-05-02T08:02:28.064Z,101320.61
2018-05-02T08:04:55.600Z,101317.69
2018-05-02T08:07:23.137Z,101315.92
2018-05-02T08:09:50.669Z,101310.89
2018-05-02T08:12:18.189Z,101306.95
2018-05-02T08:14:45.711Z,101324.68
2018-05-02T08:17:13.246Z,101307.07
2018-05-02T08:19:40.772Z,101314.87
2018-05-02T08:22:08.296Z,101306.75
2018-05-02T08:24:35.819Z,101306.36
2018-05-02T08:27:03.352Z,101297.52
2018-05-02T08:29:30.880Z,101300.66
2018-05-02T08:31:58.408Z,101295.17
2018-05-02T08:34:25.934Z,101287.52
2018-05-02T08:36:53.453Z,101287.56
2018-05-02T08:39:20.967Z,101291.23
2018-05-02T08:41:48.476Z,101286.14
2018-05-02T08:44:15.995Z,101290.78
2018-05-02T08:46:43.511Z,101282.52
2018-05-02T08:49:11.044Z,101281.16
2018-05-02T08:51:38.577Z,101294.37
2018-05-02T08:54:06.101Z,101291.39
2018-05-02T08:56:33.618Z,101293.97
2018-05-02T08:59:01.151Z,101286.56
2018-05-02T09:01:28.668Z,101281.02
2018-05-02T09:03:56.192Z,101281.04
2018-05-02T09:06:23.724Z,101295.85
2018-05-02T09:08:51.284Z,101284.13
2018-05-02T09:11:18.782Z,101285.46
2018-05-02T09:13:46.311Z,101270.06
2018-05-02T09:16:13.833Z,101281.41
2018-05-02T09:18:41.352Z,101278.77
2018-05-02T09:21:08.913Z,101274.44
2018-05-02T09:23:36.443Z,101275.98
2018-05-02T09:26:03.963Z,101277.31
2018-05-02T09:28:31.483Z,101279.87
2018-05-02T09:30:59.005Z,101287.61
2018-05-02T09:33:26.516Z,101281.11
2018-05-02T09:35:54.035Z,101275.38
2018-05-02T09:38:21.635Z,101263.30
2018-05-02T09:40:49.127Z,101259.65
2018-05-02T09:43:16.649Z,101260.73
2018-05-02T09:45:44.167Z,101261.48
2018-05-02T09:48:11.711Z,101267.70
2018-05-02T09:50:39.229Z,101271.02
2018-05-02T09:53:06.749Z,101263.80
2018-05-02T09:55:34.274Z,101263.30
2018-05-02T09:58:01.801Z,101262.59
2018-05-02T10:00:30.253Z,101261.59
2018-05-02T10:02:57.772Z,101258.69
2018-05-02T10:05:25.292Z,101257.39
2018-05-02T10:07:52.815Z,101250.08
2018-05-02T10:10:20.328Z,101249.59
2018-05-02T10:12:47.948Z,101253.33
2018-05-02T10:15:15.415Z,101253.05
2018-05-02T10:17:42.932Z,101243.78
2018-05-02T10:20:10.462Z,101242.13
2018-05-02T10:22:37.985Z,101244.95
2018-05-02T10:25:05.499Z,101238.59
2018-05-02T10:27:33.029Z,101237.63
2018-05-02T10:30:00.560Z,101235.92
2018-05-02T10:32:28.097Z,101230.40
2018-05-02T10:34:55.607Z,101225.38
2018-05-02T10:37:23.130Z,101221.00
2018-05-02T10:39:50.654Z,101220.50
2018-05-02T10:42:18.179Z,101223.19
2018-05-02T10:44:45.691Z,101217.17
2018-05-02T10:47:13.217Z,101214.62
2018-05-02T10:49:40.744Z,101210.19
2018-05-02T10:52:08.269Z,101210.92
2018-05-02T10:54:35.784Z,101211.61
2018-05-02T10:57:03.317Z,101202.75
2018-05-02T10:59:30.900Z,101212.98
2018-05-02T11:01:58.406Z,101214.53
2018-05-02T11:04:25.920Z,101207.77
2018-05-02T11:06:53.450Z,101203.45
2018-05-02T11:09:20.986Z,101212.91
2018-05-02T11:11:48.505Z,101207.30
2018-05-02T11:14:16.036Z,101198.42
2018-05-02T11:16:43.621Z,101204.59
2018-05-02T11:19:11.152Z,101205.23
2018-05-02T11:21:38.662Z,101200.59
2018-05-02T11:24:06.198Z,101194.81
2018-05-02T11:26:33.749Z,101186.97
2018-05-02T11:29:01.255Z,101189.58
2018-05-02T11:31:28.771Z,101196.92
2018-05-02T11:33:56.306Z,101200.69
2018-05-02T11:36:23.837Z,101212.70
2018-05-02T11:38:51.347Z,101216.77
2018-05-02T11:41:18.957Z,101204.95
2018-05-02T11:43:46.481Z,101197.61
2018-05-02T11:46:14.100Z,101212.04
2018-05-02T11:48:41.616Z,101200.25
2018-05-02T11:51:09.148Z,101195.61
2018-05-02T11:53:36.688Z,101183.44
2018-05-02T11:56:04.207Z,101189.82
2018-05-02T11:58:31.731Z,101196.06
2018-05-02T12:00:59.276Z,101199.40
2018-05-02T12:03:26.903Z,101195.87
2018-05-02T12:05:54.377Z,101190.77
2018-05-02T12:08:21.910Z,101191.27
2018-05-02T12:10:49.442Z,101180.69
2018-05-02T12:13:17.028Z,101176.09
2018-05-02T12:15:44.553Z,101174.83
2018-05-02T12:18:12.080Z,101168.63
2018-05-02T12:20:39.605Z,101170.73
2018-05-02T12:23:07.128Z,101157.55
2018-05-02T12:25:34.653Z,101152.58
2018-05-02T12:28:02.186Z,101143.01
2018-05-02T12:30:29.704Z,101136.56
2018-05-02T12:32:57.236Z,101138.56
2018-05-02T12:35:24.839Z,101141.08
2018-05-02T12:37:52.303Z,101123.10
2018-05-02T12:40:19.836Z,101119.41
2018-05-02T12:42:47.354Z,101115.22
2018-05-02T12:45:14.863Z,101118.05
2018-05-02T12:47:42.375Z,101115.13
2018-05-02T12:50:09.883Z,101107.83
2018-05-02T12:52:37.421Z,101116.03
2018-05-02T12:55:04.949Z,101113.80
2018-05-02T12:57:32.463Z,101114.20
2018-05-02T12:59:59.972Z,101103.42
2018-05-02T13:02:27.527Z,101095.72
2018-05-02T13:04:55.025Z,101090.96
2018-05-02T13:07:22.550Z,101086.95
2018-05-02T13:09:50.080Z,101087.83
2018-05-02T13:12:17.612Z,101086.36
2018-05-02T13:14:45.137Z,101076.22
2018-05-02T13:17:12.668Z,101069.50
2018-05-02T13:19:40.194Z,101073.67
2018-05-02T13:22:07.750Z,101069.23
2018-05-02T13:24:35.278Z,101063.56
2018-05-02T13:27:02.803Z,101066.55
2018-05-02T13:29:30.323Z,101054.50
2018-05-02T13:31:57.880Z,101049.42
2018-05-02T13:34:25.417Z,101041.54
2018-05-02T13:36:52.939Z,101038.51
2018-05-02T13:39:20.463Z,101023.11
2018-05-02T13:41:48.023Z,101016.05
2018-05-02T13:44:15.597Z,101013.28
2018-05-02T13:46:43.161Z,101013.12
2018-05-02T13:49:10.759Z,101005.64
2018-05-02T13:51:38.301Z,101002.92
2018-05-02T13:54:05.828Z,100996.73
2018-05-02T13:56:33.480Z,100998.48
2018-05-02T13:59:01.038Z,100998.34
2018-05-02T14:01:28.576Z,100990.41
2018-05-02T14:03:56.105Z,100981.95
2018-05-02T14:06:23.698Z,100987.47
2018-05-02T14:08:51.326Z,100979.21
2018-05-02T14:11:18.896Z,100973.80
2018-05-02T14:13:46.450Z,100974.51
2018-05-02T14:16:13.996Z,100976.98
2018-05-02T14:18:41.521Z,100975.92
2018-05-02T14:21:09.041Z,100970.13
2018-05-02T14:23:36.557Z,100963.64
2018-05-02T14:26:04.075Z,100957.67
2018-05-02T14:28:31.629Z,100957.95
2018-05-02T14:30:59.234Z,100953.05
2018-05-02T14:33:26.807Z,100962.00
2018-05-02T14:35:54.353Z,100958.84
2018-05-02T14:38:22.101Z,100956.88
2018-05-02T14:40:49.598Z,100948.66
2018-05-02T14:43:17.150Z,100954.21
2018-05-02T14:45:44.680Z,100958.52
2018-05-02T14:48:12.203Z,100955.69
2018-05-02T14:50:39.733Z,100954.14
2018-05-02T14:53:07.258Z,100955.77
2018-05-02T14:55:35.700Z,100962.05
2018-05-02T14:58:03.228Z,100960.13
2018-05-02T15:00:30.758Z,100955.05
2018-05-02T15:02:58.485Z,100942.84
2018-05-02T15:05:26.059Z,100945.41
2018-05-02T15:07:53.602Z,100946.14
2018-05-02T15:10:21.154Z,100934.92
2018-05-02T15:12:48.679Z,100926.71
2018-05-02T15:15:16.193Z,100936.26
2018-05-02T15:17:43.715Z,100936.03
2018-05-02T15:20:11.288Z,100934.09
2018-05-02T15:22:38.794Z,100932.27
2018-05-02T15:25:06.317Z,100926.75
2018-05-02T15:27:33.833Z,100931.55
2018-05-02T15:30:01.377Z,100931.59
2018-05-02T15:32:28.985Z,100922.73
2018-05-02T15:34:56.455Z,100927.16
2018-05-02T15:37:23.971Z,100926.67
2018-05-02T15:39:51.486Z,100925.69
2018-05-02T15:42:19.026Z,100930.77
2018-05-02T15:44:46.543Z,100931.43
2018-05-02T15:47:14.063Z,100925.14
2018-05-02T15:49:41.585Z,100928.02
2018-05-02T15:52:09.115Z,100915.59
2018-05-02T15:54:36.650Z,100907.91
2018-05-02T15:57:04.171Z,100913.16
2018-05-02T15:59:31.692Z,100907.19
2018-05-02T16:01:59.333Z,100902.20
2018-05-02T16:04:26.860Z,100898.69
2018-05-02T16:06:54.377Z,100895.81
2018-05-02T16:09:21.906Z,100888.80
2018-05-02T16:11:49.429Z,100884.52
2018-05-02T16:14:16.947Z,100885.39
2018-05-02T16:16:44.486Z,100880.23
2018-05-02T16:19:12.010Z,100880.59
2018-05-02T16:21:39.532Z,100878.57
2018-05-02T16:24:07.073Z,100878.18
2018-05-02T16:26:34.584Z,100875.26
2018-05-02T16:29:02.104Z,100877.61
2018-05-02T16:31:29.622Z,100874.09
2018-05-02T16:33:57.144Z,100875.95
2018-05-02T16:36:24.675Z,100884.47
2018-05-02T16:38:52.197Z,100887.49
2018-05-02T16:41:19.704Z,100888.09
2018-05-02T16:43:47.233Z,100885.89
2018-05-02T16:46:14.746Z,100885.22
2018-05-02T16:48:42.280Z,100877.74
2018-05-02T16:51:09.813Z,100874.37
2018-05-02T16:53:37.338Z,100874.86
2018-05-02T16:56:04.855Z,100868.57
2018-05-02T16:58:32.388Z,100870.68
2018-05-02T17:00:59.935Z,100867.55
2018-05-02T17:03:27.455Z,100879.39
2018-05-02T17:05:54.975Z,100870.30
2018-05-02T17:08:22.521Z,100876.98
2018-05-02T17:10:50.044Z,100878.27
2018-05-02T17:13:17.570Z,100878.32
2018-05-02T17:15:45.088Z,100878.13
2018-05-02T17:18:12.647Z,100873.02
2018-05-02T17:20:40.160Z,100870.80
2018-05-02T17:23:07.680Z,100870.14
2018-05-02T17:25:35.199Z,100861.09
2018-05-02T17:28:02.729Z,100866.34
2018-05-02T17:30:30.261Z,100869.41
2018-05-02T17:32:57.788Z,100865.38
2018-05-02T17:35:25.310Z,100862.59
2018-05-02T17:37:52.836Z,100851.05
2018-05-02T17:40:20.351Z,100849.31
2018-05-02T17:42:47.869Z,100855.53
2018-05-02T17:45:15.382Z,100860.56
2018-05-02T17:47:42.900Z,100855.33
2018-05-02T17:50:10.431Z,100856.48
2018-05-02T17:52:37.953Z,100854.67
2018-05-02T17:55:05.484Z,100856.28
2018-05-02T17:57:32.995Z,100851.47
2018-05-02T18:00:00.520Z,100848.84
2018-05-02T18:02:28.042Z,100857.78
2018-05-02T18:04:55.569Z,100856.44
2018-05-02T18:07:23.080Z,100854.19
2018-05-02T18:09:50.602Z,100856.02
2018-05-02T18:12:18.130Z,100848.61
2018-05-02T18:14:45.647Z,100848.17
2018-05-02T18:17:13.168Z,100842.44
2018-05-02T18:19:40.675Z,100843.37
2018-05-02T18:22:08.186Z,100839.73
2018-05-02T18:24:35.721Z,100843.37
2018-05-02T18:27:03.242Z,100842.08
2018-05-02T18:29:30.763Z,100845.88
2018-05-02T18:31:58.279Z,100841.65
2018-05-02T18:34:25.800Z,100836.67
2018-05-02T18:36:53.324Z,100830.53
2018-05-02T18:39:20.844Z,100827.76
2018-05-02T18:41:48.428Z,100821.46
2018-05-02T18:44:15.982Z,100822.28
2018-05-02T18:46:43.561Z,100824.11
2018-05-02T18:49:11.089Z,100822.77
2018-05-02T18:51:38.606Z,100826.05
2018-05-02T18:54:06.130Z,100824.93
2018-05-02T18:56:33.652Z,100823.91
2018-05-02T18:59:01.294Z,100819.13
2018-05-02T19:01:28.826Z,100824.58
2018-05-02T19:03:56.386Z,100823.66
2018-05-02T19:06:23.890Z,100824.00
2018-05-02T19:08:51.501Z,100829.45
2018-05-02T19:11:19.017Z,100825.20
2018-05-02T19:13:52.064Z,100820.72
2018-05-02T19:16:19.593Z,100822.50
2018-05-02T19:18:52.826Z,100833.09
2018-05-02T19:21:20.356Z,100834.88
2018-05-02T19:23:47.897Z,100832.63
2018-05-02T19:26:21.147Z,100836.34
2018-05-02T19:28:48.668Z,100834.02
2018-05-02T19:31:21.716Z,100829.97
2018-05-02T19:33:53.063Z,100835.44
2018-05-02T19:36:20.597Z,100837.00
2018-05-02T19:38:48.125Z,100837.81
2018-05-02T19:41:21.272Z,100835.92
2018-05-02T19:43:54.354Z,100828.84
2018-05-02T19:46:21.864Z,100835.77
2018-05-02T19:48:49.440Z,100824.10
2018-05-02T19:51:22.596Z,100826.42
2018-05-02T19:53:50.077Z,100832.95
2018-05-02T19:56:17.591Z,100824.81
2018-05-02T19:58:45.128Z,100833.67
2018-05-02T20:01:18.272Z,100822.97
2018-05-02T20:03:45.801Z,100825.19
2018-05-02T20:06:13.335Z,100824.16
2018-05-02T20:08:46.449Z,100822.88
2018-05-02T20:11:19.727Z,100810.05
2018-05-02T20:13:52.929Z,100799.91
2018-05-02T20:16:20.456Z,100800.14
2018-05-02T20:18:47.973Z,100790.03
2018-05-02T20:21:15.491Z,100790.48
2018-05-02T20:23:43.018Z,100792.24
2018-05-02T20:26:10.536Z,100791.61
2018-05-02T20:28:38.064Z,100790.73
2018-05-02T20:31:05.593Z,100786.79
2018-05-02T20:33:33.113Z,100785.08
2018-05-02T20:36:00.639Z,100787.78
2018-05-02T20:38:28.174Z,100786.01
2018-05-02T20:40:55.688Z,100780.41
2018-05-02T20:43:23.221Z,100777.80
2018-05-02T20:45:50.755Z,100773.91
2018-05-02T20:48:18.283Z,100777.46
2018-05-02T20:50:45.797Z,100777.48
2018-05-02T20:53:13.329Z,100779.47
2018-05-02T20:55:40.850Z,100777.47
2018-05-02T20:58:08.363Z,100776.95
2018-05-02T21:00:35.887Z,100772.03
2018-05-02T21:03:03.420Z,100775.55
2018-05-02T21:05:30.935Z,100763.08
2018-05-02T21:07:58.465Z,100758.01
2018-05-02T21:10:25.992Z,100749.66
2018-05-02T21:12:53.504Z,100741.61
2018-05-02T21:15:21.024Z,100743.92
2018-05-02T21:17:48.536Z,100752.50
2018-05-02T21:20:16.052Z,100755.20
2018-05-02T21:22:43.675Z,100749.55
2018-05-02T21:25:11.191Z,100750.52
2018-05-02T21:27:38.713Z,100753.71
2018-05-02T21:30:06.251Z,100751.55
2018-05-02T21:32:33.782Z,100765.14
2018-05-02T21:35:01.301Z,100764.39
2018-05-02T21:37:28.835Z,100760.41
2018-05-02T21:39:56.363Z,100762.36
2018-05-02T21:42:23.914Z,100759.33
2018-05-02T21:44:51.429Z,100755.71
2018-05-02T21:47:18.964Z,100744.97
2018-05-02T21:49:46.499Z,100744.16
2018-05-02T21:52:14.024Z,100735.38
2018-05-02T21:54:41.544Z,100736.58
2018-05-02T21:57:09.064Z,100730.73
2018-05-02T21:59:36.584Z,100727.50
2018-05-02T22:02:04.104Z,100720.88
2018-05-02T22:04:31.679Z,100730.27
2018-05-02T22:06:59.221Z,100731.29
2018-05-02T22:09:26.741Z,100733.83
2018-05-02T22:11:54.261Z,100739.48
2018-05-02T22:14:21.797Z,100729.99
2018-05-02T22:16:49.319Z,100721.75
2018-05-02T22:19:16.849Z,100709.61
2018-05-02T22:21:44.409Z,100698.31
2018-05-02T22:24:11.927Z,100698.33
2018-05-02T22:26:39.448Z,100704.48
2018-05-02T22:29:06.979Z,100705.45
2018-05-02T22:31:34.500Z,100693.42
2018-05-02T22:34:02.032Z,100692.72
2018-05-02T22:36:29.577Z,100695.70
2018-05-02T22:38:57.100Z,100706.97
2018-05-02T22:41:24.624Z,100706.11
2018-05-02T22:43:52.148Z,100700.64
2018-05-02T22:46:19.656Z,100698.76
2018-05-02T22:48:47.205Z,100696.23
2018-05-02T22:51:14.732Z,100707.07
2018-05-02T22:53:42.296Z,100704.92
2018-05-02T22:56:09.807Z,100704.91
2018-05-02T22:58:37.331Z,100705.34
2018-05-02T23:01:04.863Z,100699.41
2018-05-02T23:03:32.384Z,100696.11
2018-05-02T23:05:59.942Z,100702.28
2018-05-02T23:08:27.452Z,100707.13
2018-05-02T23:10:54.963Z,100719.70
2018-05-02T23:13:22.483Z,100722.47
2018-05-02T23:15:50.021Z,100726.28
2018-05-02T23:18:17.633Z,100728.56
2018-05-02T23:20:45.086Z,100734.10
2018-05-02T23:23:12.607Z,100739.13
2018-05-02T23:25:40.119Z,100730.12
2018-05-02T23:28:07.633Z,100717.48
2018-05-02T23:30:35.155Z,100719.32
2018-05-02T23:33:02.678Z,100702.34
2018-05-02T23:35:30.200Z,100694.25
2018-05-02T23:37:57.728Z,100680.45
2018-05-02T23:40:25.242Z,100675.32
2018-05-02T23:42:52.756Z,100664.97
2018-05-02T23:45:20.287Z,100670.31
2018-05-02T23:47:47.796Z,100674.36
2018-05-02T23:50:15.324Z,100666.98
2018-05-02T23:52:42.849Z,100670.57
2018-05-02T23:55:10.372Z,100662.43
2018-05-02T23:57:37.904Z,100664.16
